createdAt,value
2023-01-13T00:00:01.984Z,36.6
2023-01-13T00:01:01.148Z,36.6
2023-01-13T00:02:01.887Z,36.6
2023-01-13T00:03:01.304Z,36.6
2023-01-13T00:04:04.059Z,36.5
2023-01-13T00:05:02.232Z,36.3
2023-01-13T00:06:01.163Z,36.2
2023-01-13T00:07:01.166Z,36.1
2023-01-13T00:08:01.187Z,36
2023-01-13T00:09:01.152Z,35.8
2023-01-13T00:10:02.420Z,35.8
2023-01-13T00:11:01.227Z,35.7
2023-01-13T00:12:01.190Z,35.7
2023-01-13T00:13:03.932Z,35.6
2023-01-13T00:14:02.092Z,35.6
2023-01-13T00:15:01.595Z,35.7
2023-01-13T00:16:01.250Z,35.4
2023-01-13T00:17:03.099Z,35.3
2023-01-13T00:18:01.117Z,35.1
2023-01-13T00:19:01.403Z,35
2023-01-13T00:20:03.183Z,35.1
2023-01-13T00:21:01.152Z,35
2023-01-13T00:22:01.553Z,34.9
2023-01-13T00:23:02.104Z,34.8
2023-01-13T00:24:01.538Z,34.6
2023-01-13T00:25:01.204Z,34.6
2023-01-13T00:26:01.209Z,34.3
2023-01-13T00:27:01.185Z,34.1
2023-01-13T00:28:02.567Z,33.6
2023-01-13T00:29:01.376Z,33.5
2023-01-13T00:30:01.606Z,33.5
2023-01-13T00:31:01.271Z,33.5
2023-01-13T00:32:01.214Z,33.5
2023-01-13T00:33:01.225Z,33.1
2023-01-13T00:34:01.150Z,32.9
2023-01-13T00:35:01.123Z,32.9
2023-01-13T00:36:01.951Z,32.8
2023-01-13T00:37:00.935Z,32.7
2023-01-13T00:38:00.734Z,32.6
2023-01-13T00:39:00.589Z,32.6
2023-01-13T00:40:00.375Z,32.5
2023-01-13T00:41:00.040Z,32.4
2023-01-13T00:41:59.677Z,32.4
2023-01-13T00:43:01.841Z,32.2
2023-01-13T00:44:01.560Z,32
2023-01-13T00:45:01.221Z,31.8
2023-01-13T00:46:01.277Z,31.7
2023-01-13T00:47:01.169Z,31.7
2023-01-13T00:48:01.445Z,31.4
2023-01-13T00:49:01.559Z,31.4
2023-01-13T00:50:01.282Z,31.2
2023-01-13T00:51:03.152Z,30.8
2023-01-13T00:52:02.483Z,30.7
2023-01-13T00:53:01.151Z,30.8
2023-01-13T00:54:01.871Z,30.6
2023-01-13T00:55:01.868Z,30.6
2023-01-13T00:56:01.471Z,30.6
2023-01-13T00:57:01.520Z,30.5
2023-01-13T00:58:01.537Z,30.4
2023-01-13T00:59:01.556Z,30.3
2023-01-13T01:00:01.302Z,30.3
2023-01-13T01:01:02.774Z,30.1
2023-01-13T01:02:01.331Z,30.1
2023-01-13T01:03:01.208Z,29.9
2023-01-13T01:04:01.262Z,30
2023-01-13T01:05:01.114Z,29.9
2023-01-13T01:06:01.600Z,29.8
2023-01-13T01:07:01.292Z,29.8
2023-01-13T01:08:02.149Z,29.5
2023-01-13T01:09:01.063Z,29.9
2023-01-13T01:10:01.174Z,29.8
2023-01-13T01:11:03.665Z,29.9
2023-01-13T01:12:01.177Z,30
2023-01-13T01:13:01.228Z,30.1
2023-01-13T01:14:01.193Z,29.8
2023-01-13T01:15:01.182Z,30
2023-01-13T01:16:01.386Z,30
2023-01-13T01:17:02.203Z,30.1
2023-01-13T01:18:01.732Z,30.2
2023-01-13T01:19:01.214Z,30.1
2023-01-13T01:20:01.250Z,30.3
2023-01-13T01:21:08.442Z,30.4
2023-01-13T01:22:01.225Z,30.7
2023-01-13T01:23:01.220Z,30.7
2023-01-13T01:24:01.168Z,30.6
2023-01-13T01:25:01.151Z,30.6
2023-01-13T01:26:10.755Z,30.5
2023-01-13T01:27:01.353Z,30.6
2023-01-13T01:28:01.553Z,30.7
2023-01-13T01:29:01.118Z,30.7
2023-01-13T01:30:01.189Z,30.7
2023-01-13T01:31:13.683Z,30.7
2023-01-13T01:32:01.585Z,30.7
2023-01-13T01:33:01.218Z,30.7
2023-01-13T01:34:01.246Z,30.7
2023-01-13T01:35:02.623Z,30.7
2023-01-13T01:36:14.155Z,30.7
2023-01-13T01:37:01.227Z,30.7
2023-01-13T01:38:01.128Z,30.7
2023-01-13T01:39:01.570Z,30.6
2023-01-13T01:40:01.551Z,30.7
2023-01-13T01:41:17.128Z,30.7
2023-01-13T01:42:02.186Z,30.7
2023-01-13T01:43:01.169Z,30.5
2023-01-13T01:44:01.189Z,30.7
2023-01-13T01:45:01.156Z,30.7
2023-01-13T01:46:01.172Z,30.7
2023-01-13T01:47:01.520Z,30.7
2023-01-13T01:48:01.569Z,30.7
2023-01-13T01:49:01.211Z,30.7
2023-01-13T01:50:01.187Z,30.5
2023-01-13T01:51:01.198Z,30.4
2023-01-13T01:52:01.137Z,30.5
2023-01-13T01:53:01.207Z,30.4
2023-01-13T01:54:01.250Z,30.7
2023-01-13T01:55:01.938Z,30.7
2023-01-13T01:56:02.037Z,30.7
2023-01-13T01:57:01.467Z,30.7
2023-01-13T01:58:01.144Z,30.7
2023-01-13T01:59:00.856Z,30.7
2023-01-13T02:00:00.599Z,30.7
2023-01-13T02:01:00.387Z,30.7
2023-01-13T02:02:00.438Z,30.7
2023-01-13T02:03:00.350Z,30.7
2023-01-13T02:04:00.103Z,30.7
2023-01-13T02:04:59.844Z,30.8
2023-01-13T02:06:01.586Z,31.1
2023-01-13T02:07:01.203Z,31
2023-01-13T02:08:01.224Z,31.3
2023-01-13T02:09:02.561Z,31.4
2023-01-13T02:10:01.257Z,31.3
2023-01-13T02:11:02.599Z,31.3
2023-01-13T02:12:02.065Z,31.4
2023-01-13T02:13:01.804Z,31.4
2023-01-13T02:14:01.519Z,31.5
2023-01-13T02:15:02.510Z,31.4
2023-01-13T02:16:01.318Z,31.5
2023-01-13T02:17:01.187Z,31.4
2023-01-13T02:18:02.185Z,31.3
2023-01-13T02:19:01.234Z,31.2
2023-01-13T02:20:02.050Z,31.3
2023-01-13T02:21:01.208Z,31.4
2023-01-13T02:22:02.528Z,31
2023-01-13T02:23:01.195Z,31.1
2023-01-13T02:24:01.196Z,30.9
2023-01-13T02:25:01.208Z,31
2023-01-13T02:26:01.991Z,30.8
2023-01-13T02:27:01.306Z,30.8
2023-01-13T02:28:01.506Z,31
2023-01-13T02:29:01.243Z,30.8
2023-01-13T02:30:01.150Z,30.7
2023-01-13T02:31:01.184Z,30.8
2023-01-13T02:32:01.146Z,31
2023-01-13T02:33:01.152Z,30.9
2023-01-13T02:34:01.572Z,30.7
2023-01-13T02:35:01.183Z,30.7
2023-01-13T02:36:01.176Z,30.7
2023-01-13T02:37:01.179Z,30.7
2023-01-13T02:38:01.199Z,30.7
2023-01-13T02:39:00.871Z,30.7
2023-01-13T02:40:01.297Z,30.5
2023-01-13T02:41:01.512Z,30.4
2023-01-13T02:42:02.674Z,30.5
2023-01-13T02:43:01.638Z,30.6
2023-01-13T02:44:02.367Z,30.7
2023-01-13T02:45:01.889Z,30.7
2023-01-13T02:46:01.196Z,30.6
2023-01-13T02:47:01.140Z,30.4
2023-01-13T02:48:01.148Z,30.2
2023-01-13T02:49:01.858Z,30.1
2023-01-13T02:50:01.215Z,29.8
2023-01-13T02:51:01.912Z,29.8
2023-01-13T02:52:01.519Z,29.8
2023-01-13T02:53:01.196Z,29.7
2023-01-13T02:54:01.238Z,29.7
2023-01-13T02:55:01.197Z,29.8
2023-01-13T02:56:01.108Z,29.6
2023-01-13T02:57:04.530Z,29.6
2023-01-13T02:58:01.116Z,29.8
2023-01-13T02:59:01.167Z,29.7
2023-01-13T03:00:01.095Z,29.8
2023-01-13T03:01:01.293Z,29.7
2023-01-13T03:02:06.629Z,29.6
2023-01-13T03:03:01.132Z,29.7
2023-01-13T03:04:01.108Z,29.3
2023-01-13T03:05:01.033Z,29.2
2023-01-13T03:06:01.103Z,29.3
2023-01-13T03:07:10.193Z,29.1
2023-01-13T03:08:01.131Z,29.1
2023-01-13T03:09:01.563Z,29.1
2023-01-13T03:10:01.523Z,29.1
2023-01-13T03:11:01.620Z,29
2023-01-13T03:12:12.788Z,29
2023-01-13T03:13:01.365Z,29.1
2023-01-13T03:14:01.055Z,29
2023-01-13T03:15:01.156Z,28.8
2023-01-13T03:16:01.086Z,28.9
2023-01-13T03:17:14.664Z,28.7
2023-01-13T03:18:01.096Z,28.6
2023-01-13T03:19:01.044Z,28.6
2023-01-13T03:20:01.338Z,28.5
2023-01-13T03:21:01.328Z,28.5
2023-01-13T03:22:16.863Z,28.4
2023-01-13T03:23:02.302Z,28.4
2023-01-13T03:24:01.033Z,28.4
2023-01-13T03:25:01.122Z,28.5
2023-01-13T03:26:01.118Z,28.5
2023-01-13T03:27:01.131Z,28.7
2023-01-13T03:28:01.191Z,28.8
2023-01-13T03:29:01.406Z,28.8
2023-01-13T03:30:02.233Z,28.8
2023-01-13T03:31:01.265Z,28.7
2023-01-13T03:32:01.075Z,28.5
2023-01-13T03:33:01.430Z,28.3
2023-01-13T03:34:01.867Z,28.5
2023-01-13T03:35:02.112Z,28.3
2023-01-13T03:36:02.515Z,28.2
2023-01-13T03:37:01.099Z,28.2
2023-01-13T03:38:01.531Z,27.9
2023-01-13T03:39:01.236Z,27.9
2023-01-13T03:40:01.142Z,27.9
2023-01-13T03:41:01.120Z,27.9
2023-01-13T03:42:01.552Z,27.8
2023-01-13T03:43:00.824Z,27.5
2023-01-13T03:44:00.485Z,27.5
2023-01-13T03:45:00.133Z,27.5
2023-01-13T03:45:59.809Z,27.5
2023-01-13T03:47:02.735Z,27.6
2023-01-13T03:48:01.869Z,27.4
2023-01-13T03:49:01.744Z,27.3
2023-01-13T03:50:01.059Z,27.3
2023-01-13T03:51:00.758Z,27.2
2023-01-13T03:52:00.355Z,27.1
2023-01-13T03:52:59.971Z,27.2
2023-01-13T03:53:59.576Z,27
2023-01-13T03:55:01.180Z,27
2023-01-13T03:56:01.120Z,26.9
2023-01-13T03:57:01.117Z,27
2023-01-13T03:58:01.298Z,26.9
2023-01-13T03:59:01.068Z,26.9
2023-01-13T04:00:01.108Z,26.9
2023-01-13T04:01:01.263Z,26.8
2023-01-13T04:02:01.683Z,27
2023-01-13T04:03:01.286Z,26.9
2023-01-13T04:04:02.090Z,26.6
2023-01-13T04:05:01.984Z,26.5
2023-01-13T04:06:01.746Z,26.5
2023-01-13T04:07:01.068Z,26.3
2023-01-13T04:08:01.478Z,26.4
2023-01-13T04:09:01.220Z,26.2
2023-01-13T04:10:02.079Z,26.1
2023-01-13T04:11:01.104Z,26.2
2023-01-13T04:12:01.112Z,25.9
2023-01-13T04:13:01.114Z,25.8
2023-01-13T04:14:01.071Z,25.9
2023-01-13T04:15:01.543Z,25.7
2023-01-13T04:16:01.211Z,25.7
2023-01-13T04:17:01.143Z,25.7
2023-01-13T04:18:01.179Z,25.6
2023-01-13T04:19:01.144Z,25.6
2023-01-13T04:20:01.075Z,25.7
2023-01-13T04:21:01.072Z,25.6
2023-01-13T04:22:01.071Z,25.5
2023-01-13T04:23:01.186Z,25.4
2023-01-13T04:24:01.473Z,25.4
2023-01-13T04:25:01.119Z,25.3
2023-01-13T04:26:01.117Z,25.2
2023-01-13T04:27:01.130Z,24.9
2023-01-13T04:28:01.132Z,25
2023-01-13T04:29:01.135Z,24.9
2023-01-13T04:30:01.138Z,24.8
2023-01-13T04:31:01.227Z,24.5
2023-01-13T04:32:01.266Z,24.5
2023-01-13T04:33:02.089Z,24.5
2023-01-13T04:34:01.152Z,24.5
2023-01-13T04:35:01.049Z,24.5
2023-01-13T04:36:00.758Z,24.3
2023-01-13T04:37:00.332Z,24.3
2023-01-13T04:38:04.830Z,24.3
2023-01-13T04:39:00.961Z,24.2
2023-01-13T04:40:01.110Z,24.2
2023-01-13T04:41:01.420Z,24.3
2023-01-13T04:42:02.354Z,24.1
2023-01-13T04:43:08.501Z,23.9
2023-01-13T04:44:00.994Z,23.8
2023-01-13T04:45:01.144Z,23.7
2023-01-13T04:46:01.165Z,23.5
2023-01-13T04:47:01.139Z,23.6
2023-01-13T04:48:10.407Z,23.4
2023-01-13T04:49:01.360Z,23.4
2023-01-13T04:50:02.568Z,23.3
2023-01-13T04:51:02.177Z,23.2
2023-01-13T04:52:01.164Z,23.1
2023-01-13T04:53:14.224Z,23.1
2023-01-13T04:54:01.484Z,22.9
2023-01-13T04:55:01.194Z,23
2023-01-13T04:56:01.092Z,23.1
2023-01-13T04:57:01.091Z,23.1
2023-01-13T04:58:16.252Z,22.7
2023-01-13T04:59:01.439Z,22.5
2023-01-13T05:00:01.122Z,22.5
2023-01-13T05:01:01.144Z,22.6
2023-01-13T05:02:01.148Z,22.5
2023-01-13T05:03:01.124Z,22.5
2023-01-13T05:04:01.315Z,22.1
2023-01-13T05:05:01.637Z,22
2023-01-13T05:06:01.227Z,21.9
2023-01-13T05:07:01.494Z,21.7
2023-01-13T05:08:01.568Z,21.7
2023-01-13T05:09:01.165Z,21.7
2023-01-13T05:10:01.092Z,21.9
2023-01-13T05:11:01.075Z,21.8
2023-01-13T05:12:01.081Z,21.8
2023-01-13T05:13:01.104Z,21.7
2023-01-13T05:14:01.047Z,21.6
2023-01-13T05:15:01.104Z,21.5
2023-01-13T05:16:01.446Z,21.6
2023-01-13T05:17:01.377Z,21.7
2023-01-13T05:18:01.361Z,21.9
2023-01-13T05:19:01.150Z,21.7
2023-01-13T05:20:01.120Z,21.7
2023-01-13T05:21:01.146Z,21.5
2023-01-13T05:22:01.149Z,21.6
2023-01-13T05:23:01.169Z,21.2
2023-01-13T05:24:01.061Z,21.2
2023-01-13T05:25:01.190Z,20.8
2023-01-13T05:26:01.754Z,21
2023-01-13T05:27:01.085Z,21.1
2023-01-13T05:28:01.191Z,20.9
2023-01-13T05:29:00.784Z,20.6
2023-01-13T05:30:00.410Z,20.5
2023-01-13T05:31:00.162Z,20.5
2023-01-13T05:31:59.861Z,20.3
2023-01-13T05:33:02.555Z,20.6
2023-01-13T05:34:01.515Z,20.4
2023-01-13T05:35:01.139Z,20.5
2023-01-13T05:36:01.133Z,20.5
2023-01-13T05:37:01.133Z,20.4
2023-01-13T05:38:01.149Z,20.3
2023-01-13T05:39:01.169Z,20.3
2023-01-13T05:40:01.546Z,20.3
2023-01-13T05:41:01.064Z,20.2
2023-01-13T05:42:01.081Z,20.5
2023-01-13T05:43:00.757Z,20.3
2023-01-13T05:44:00.357Z,20.1
2023-01-13T05:45:00.001Z,20.1
2023-01-13T05:45:59.663Z,20
2023-01-13T05:47:01.775Z,19.9
2023-01-13T05:48:01.788Z,19.6
2023-01-13T05:49:01.831Z,19.6
2023-01-13T05:50:01.077Z,19.8
2023-01-13T05:51:01.597Z,19.6
2023-01-13T05:52:01.536Z,19.5
2023-01-13T05:53:01.254Z,19.4
2023-01-13T05:54:01.951Z,19.3
2023-01-13T05:55:01.366Z,19.5
2023-01-13T05:56:00.606Z,19.4
2023-01-13T05:57:00.262Z,19.4
2023-01-13T05:58:00.045Z,19.5
2023-01-13T05:58:59.732Z,19.6
2023-01-13T06:00:01.684Z,19.1
2023-01-13T06:01:01.780Z,19.1
2023-01-13T06:02:01.094Z,19
2023-01-13T06:03:01.151Z,18.9
2023-01-13T06:04:01.221Z,18.9
2023-01-13T06:05:00.761Z,18.6
2023-01-13T06:06:00.435Z,18.4
2023-01-13T06:07:00.116Z,18.3
2023-01-13T06:07:59.888Z,18.1
2023-01-13T06:08:59.587Z,18
2023-01-13T06:10:01.164Z,18
2023-01-13T06:11:01.672Z,17.9
2023-01-13T06:12:01.485Z,18
2023-01-13T06:13:01.074Z,18
2023-01-13T06:14:01.625Z,18
2023-01-13T06:15:01.067Z,17.8
2023-01-13T06:16:01.111Z,17.7
2023-01-13T06:17:01.082Z,17.7
2023-01-13T06:18:01.087Z,17.7
2023-01-13T06:19:04.061Z,17.6
2023-01-13T06:20:01.082Z,17.7
2023-01-13T06:21:01.132Z,17.7
2023-01-13T06:22:01.117Z,17.8
2023-01-13T06:23:01.155Z,17.7
2023-01-13T06:24:06.047Z,17.8
2023-01-13T06:25:01.545Z,17.7
2023-01-13T06:26:01.178Z,17.7
2023-01-13T06:27:01.139Z,18
2023-01-13T06:28:01.157Z,17.9
2023-01-13T06:29:09.224Z,17.8
2023-01-13T06:30:01.077Z,17.7
2023-01-13T06:31:01.630Z,17.6
2023-01-13T06:32:01.943Z,17.6
2023-01-13T06:33:01.773Z,17.8
2023-01-13T06:34:11.606Z,17.8
2023-01-13T06:35:04.188Z,17.6
2023-01-13T06:36:01.584Z,17.6
2023-01-13T06:37:01.165Z,17.6
2023-01-13T06:38:01.126Z,17.7
2023-01-13T06:39:14.238Z,17.5
2023-01-13T06:40:01.038Z,17.5
2023-01-13T06:41:01.139Z,17.5
2023-01-13T06:42:01.158Z,17.4
2023-01-13T06:43:01.137Z,17.3
2023-01-13T06:44:16.661Z,17.2
2023-01-13T06:45:01.165Z,16.3
2023-01-13T06:46:00.850Z,16.2
2023-01-13T06:47:00.529Z,17.1
2023-01-13T06:48:00.153Z,16.1
2023-01-13T06:48:59.735Z,17.3
2023-01-13T06:50:01.497Z,17.3
2023-01-13T06:51:01.902Z,17.3
2023-01-13T06:52:01.892Z,17.2
2023-01-13T06:53:01.162Z,17.2
2023-01-13T06:54:01.107Z,17.2
2023-01-13T06:55:01.130Z,17.3
2023-01-13T06:56:01.263Z,17.3
2023-01-13T06:57:01.176Z,17.2
2023-01-13T06:58:01.153Z,17.2
2023-01-13T06:59:01.141Z,17.1
2023-01-13T07:00:01.659Z,16.2
2023-01-13T07:01:01.413Z,16.4
2023-01-13T07:02:01.285Z,17.4
2023-01-13T07:03:01.084Z,17.2
2023-01-13T07:04:01.071Z,17.3
2023-01-13T07:05:01.055Z,17.3
2023-01-13T07:06:01.119Z,17.4
2023-01-13T07:07:01.089Z,17.4
2023-01-13T07:08:01.113Z,17.4
2023-01-13T07:09:01.120Z,17.6
2023-01-13T07:10:01.051Z,17.4
2023-01-13T07:11:01.066Z,17.4
2023-01-13T07:12:01.058Z,17.6
2023-01-13T07:13:01.409Z,17.7
2023-01-13T07:14:01.137Z,17.5
2023-01-13T07:15:01.793Z,17.6
2023-01-13T07:16:01.897Z,17.5
2023-01-13T07:17:02.575Z,17.7
2023-01-13T07:18:01.450Z,17.7
2023-01-13T07:19:01.197Z,17.6
2023-01-13T07:20:00.789Z,17.4
2023-01-13T07:21:00.457Z,17.4
2023-01-13T07:22:00.028Z,17.3
2023-01-13T07:22:59.906Z,17.4
2023-01-13T07:23:59.648Z,17.3
2023-01-13T07:25:01.340Z,17.4
2023-01-13T07:26:02.742Z,17.5
2023-01-13T07:27:01.137Z,17.5
2023-01-13T07:28:01.130Z,17.3
2023-01-13T07:29:01.133Z,17.2
2023-01-13T07:30:01.145Z,16.3
2023-01-13T07:31:01.724Z,16.2
2023-01-13T07:32:01.869Z,16.1
2023-01-13T07:33:01.813Z,15.9
2023-01-13T07:34:01.054Z,15.7
2023-01-13T07:35:01.053Z,15.6
2023-01-13T07:36:00.663Z,15.6
2023-01-13T07:37:00.218Z,15.5
2023-01-13T07:37:59.766Z,15.3
2023-01-13T07:39:01.805Z,15.4
2023-01-13T07:40:01.388Z,15.2
2023-01-13T07:41:01.820Z,15.3
2023-01-13T07:42:01.168Z,15.4
2023-01-13T07:43:01.159Z,15.3
2023-01-13T07:44:01.241Z,15.4
2023-01-13T07:45:01.057Z,15.5
2023-01-13T07:46:00.735Z,15.5
2023-01-13T07:47:00.472Z,15.4
2023-01-13T07:48:00.169Z,15.4
2023-01-13T07:49:00.184Z,15.2
2023-01-13T07:49:59.816Z,15.1
2023-01-13T07:51:02.661Z,15.3
2023-01-13T07:52:01.576Z,15.2
2023-01-13T07:53:01.784Z,15
2023-01-13T07:54:01.118Z,14.8
2023-01-13T07:55:01.786Z,14.9
2023-01-13T07:56:00.900Z,14.8
2023-01-13T07:57:00.793Z,14.8
2023-01-13T07:58:00.557Z,14.7
2023-01-13T07:59:00.348Z,14.6
2023-01-13T08:00:02.610Z,14.5
2023-01-13T08:01:01.279Z,14.7
2023-01-13T08:02:00.112Z,14.6
2023-01-13T08:02:59.908Z,14.6
2023-01-13T08:03:59.711Z,14.8
2023-01-13T08:05:05.723Z,14.6
2023-01-13T08:06:01.186Z,14.6
2023-01-13T08:07:01.242Z,14.6
2023-01-13T08:08:01.087Z,14.4
2023-01-13T08:09:01.099Z,14.4
2023-01-13T08:10:08.437Z,14.2
2023-01-13T08:11:01.305Z,14.1
2023-01-13T08:12:01.099Z,14.1
2023-01-13T08:13:00.785Z,14.1
2023-01-13T08:14:00.501Z,13.9
2023-01-13T08:15:10.394Z,14
2023-01-13T08:16:02.059Z,14.2
2023-01-13T08:17:01.425Z,14.3
2023-01-13T08:18:01.516Z,14.2
2023-01-13T08:19:01.247Z,14
2023-01-13T08:20:12.893Z,14
2023-01-13T08:21:01.482Z,14.2
2023-01-13T08:22:01.160Z,14.2
2023-01-13T08:23:01.092Z,14.6
2023-01-13T08:24:01.076Z,14.5
2023-01-13T08:25:15.152Z,14.3
2023-01-13T08:26:02.752Z,14.2
2023-01-13T08:27:01.483Z,14
2023-01-13T08:28:01.113Z,14.3
2023-01-13T08:29:01.040Z,14.2
2023-01-13T08:30:01.071Z,14.1
2023-01-13T08:31:00.998Z,14.1
2023-01-13T08:31:59.682Z,14
2023-01-13T08:33:01.368Z,14
2023-01-13T08:34:02.060Z,14.1
2023-01-13T08:35:01.940Z,13.8
2023-01-13T08:36:01.048Z,13.7
2023-01-13T08:37:01.266Z,13.8
2023-01-13T08:38:01.953Z,14
2023-01-13T08:39:02.510Z,14
2023-01-13T08:40:01.068Z,13.8
2023-01-13T08:41:00.646Z,14
2023-01-13T08:42:00.256Z,14.1
2023-01-13T08:42:59.857Z,14.2
2023-01-13T08:44:02.509Z,14.1
2023-01-13T08:45:02.506Z,14.5
2023-01-13T08:46:01.397Z,14.8
2023-01-13T08:47:01.141Z,14.5
2023-01-13T08:48:01.111Z,14.7
2023-01-13T08:49:01.127Z,14.8
2023-01-13T08:50:01.176Z,14.8
2023-01-13T08:51:00.809Z,15
2023-01-13T08:52:01.163Z,14.9
2023-01-13T08:53:02.471Z,14.6
2023-01-13T08:54:02.403Z,14.5
2023-01-13T08:55:01.087Z,14.4
2023-01-13T08:56:00.829Z,14.9
2023-01-13T08:57:00.517Z,14.8
2023-01-13T08:58:14.439Z,15
2023-01-13T08:59:01.753Z,15.1
2023-01-13T09:00:01.096Z,15.2
2023-01-13T09:01:01.206Z,15.6
2023-01-13T09:02:00.158Z,15.9
2023-01-13T09:02:59.750Z,16.4
2023-01-13T09:04:01.456Z,16.8
2023-01-13T09:05:01.141Z,17.5
2023-01-13T09:06:00.614Z,17.8
2023-01-13T09:07:00.224Z,18.1
2023-01-13T09:07:59.790Z,18.6
2023-01-13T09:09:01.722Z,19.2
2023-01-13T09:10:01.428Z,19.5
2023-01-13T09:11:01.067Z,20.3
2023-01-13T09:12:01.257Z,21
2023-01-13T09:13:01.738Z,21.9
2023-01-13T09:14:03.362Z,22.7
2023-01-13T09:15:01.857Z,23.6
2023-01-13T09:16:01.543Z,24.1
2023-01-13T09:17:01.917Z,24.8
2023-01-13T09:18:01.182Z,25.7
2023-01-13T09:19:01.101Z,26.1
2023-01-13T09:20:01.131Z,26.5
2023-01-13T09:21:00.836Z,26.8
2023-01-13T09:22:00.435Z,26.7
2023-01-13T09:23:00.109Z,26.7
2023-01-13T09:23:59.809Z,28.2
2023-01-13T09:25:01.437Z,28.4
2023-01-13T09:26:00.729Z,28.8
2023-01-13T09:27:00.454Z,29.2
2023-01-13T09:28:00.167Z,29.8
2023-01-13T09:28:59.830Z,30.4
2023-01-13T09:30:01.876Z,30.5
2023-01-13T09:31:01.973Z,31.1
2023-01-13T09:32:01.222Z,31.8
2023-01-13T09:33:00.868Z,32.9
2023-01-13T09:34:01.147Z,33.5
2023-01-13T09:35:01.135Z,34.2
2023-01-13T09:36:00.958Z,34.6
2023-01-13T09:37:01.508Z,34.7
2023-01-13T09:38:01.139Z,35
2023-01-13T09:39:01.143Z,35.2
2023-01-13T09:40:01.179Z,35.7
2023-01-13T09:41:00.847Z,36
2023-01-13T09:42:00.432Z,34.4
2023-01-13T09:43:00.313Z,34.1
2023-01-13T09:43:59.848Z,33.3
2023-01-13T09:45:02.079Z,32.6
2023-01-13T09:46:02.991Z,31.8
2023-01-13T09:47:01.139Z,30.3
2023-01-13T09:48:01.092Z,29.9
2023-01-13T09:49:01.105Z,30.1
2023-01-13T09:50:01.115Z,29.7
2023-01-13T09:51:05.088Z,28.9
2023-01-13T09:52:02.139Z,28.3
2023-01-13T09:53:00.914Z,27.9
2023-01-13T09:54:01.360Z,24.7
2023-01-13T09:55:01.367Z,25.5
2023-01-13T09:56:06.201Z,26
2023-01-13T09:57:01.278Z,26.2
2023-01-13T09:58:01.177Z,26.3
2023-01-13T09:59:01.173Z,25.8
2023-01-13T10:00:01.163Z,25.4
2023-01-13T10:01:09.489Z,24.5
2023-01-13T10:02:00.275Z,24.7
2023-01-13T10:02:59.852Z,25.1
2023-01-13T10:04:02.045Z,24.7
2023-01-13T10:05:02.223Z,24.7
2023-01-13T10:06:11.719Z,25.2
2023-01-13T10:07:01.112Z,25.5
2023-01-13T10:08:01.128Z,25.6
2023-01-13T10:09:01.162Z,26.5
2023-01-13T10:10:01.131Z,26.1
2023-01-13T10:11:15.051Z,25.5
2023-01-13T10:12:01.045Z,25.3
2023-01-13T10:13:00.850Z,25.4
2023-01-13T10:14:01.173Z,25.4
2023-01-13T10:15:01.168Z,24.7
2023-01-13T10:16:10.900Z,24.7
2023-01-13T10:17:01.482Z,24.7
2023-01-13T10:18:02.087Z,24.7
2023-01-13T10:19:01.115Z,24.8
2023-01-13T10:20:01.093Z,25
2023-01-13T10:21:00.791Z,24.8
2023-01-13T10:22:00.499Z,25.2
2023-01-13T10:23:00.323Z,25.8
2023-01-13T10:24:00.083Z,25.9
2023-01-13T10:24:59.794Z,26
2023-01-13T10:26:01.559Z,26.3
2023-01-13T10:27:01.514Z,25.3
2023-01-13T10:28:02.160Z,25.5
2023-01-13T10:29:01.751Z,25.6
2023-01-13T10:30:01.993Z,25.5
2023-01-13T10:31:01.611Z,24.6
2023-01-13T10:32:01.173Z,23.3
2023-01-13T10:33:01.982Z,23.9
2023-01-13T10:34:01.191Z,23.8
2023-01-13T10:35:01.121Z,23.4
2023-01-13T10:36:00.788Z,23.5
2023-01-13T10:37:00.404Z,22.8
2023-01-13T10:38:00.123Z,21.3
2023-01-13T10:38:59.766Z,21.6
2023-01-13T10:40:01.477Z,20.7
2023-01-13T10:41:01.129Z,20
2023-01-13T10:42:01.526Z,19.5
2023-01-13T10:43:01.300Z,19.8
2023-01-13T10:44:01.352Z,20.6
2023-01-13T10:45:02.380Z,20.3
2023-01-13T10:46:00.644Z,20.1
2023-01-13T10:47:00.264Z,19.6
2023-01-13T10:47:59.919Z,19.9
2023-01-13T10:48:59.651Z,20.1
2023-01-13T10:50:01.848Z,20.1
2023-01-13T10:51:01.292Z,19.9
2023-01-13T10:52:04.075Z,18.8
2023-01-13T10:53:00.989Z,18.8
2023-01-13T10:54:01.127Z,19.2
2023-01-13T10:55:01.103Z,19.4
2023-01-13T10:56:00.693Z,19.3
2023-01-13T10:57:00.257Z,18.8
2023-01-13T10:57:59.887Z,19.1
2023-01-13T10:58:59.488Z,19.1
2023-01-13T11:00:01.140Z,18.6
2023-01-13T11:01:00.959Z,18.5
2023-01-13T11:02:03.783Z,18.5
2023-01-13T11:03:01.375Z,18.5
2023-01-13T11:04:02.634Z,18.5
2023-01-13T11:05:01.374Z,18.7
2023-01-13T11:06:01.104Z,18.7
2023-01-13T11:07:01.097Z,18.3
2023-01-13T11:08:01.093Z,18
2023-01-13T11:09:01.099Z,18.5
2023-01-13T11:10:01.103Z,18.5
2023-01-13T11:11:00.779Z,18.5
2023-01-13T11:12:00.531Z,18.5
2023-01-13T11:13:00.341Z,18.5
2023-01-13T11:13:59.947Z,17.8
2023-01-13T11:14:59.580Z,17.5
2023-01-13T11:16:01.280Z,17.7
2023-01-13T11:17:01.151Z,17.8
2023-01-13T11:18:00.689Z,18.2
2023-01-13T11:19:00.452Z,18.7
2023-01-13T11:20:00.510Z,18.6
2023-01-13T11:21:00.237Z,18.5
2023-01-13T11:21:59.938Z,18.5
2023-01-13T11:22:59.550Z,18.7
2023-01-13T11:24:01.821Z,19
2023-01-13T11:25:01.409Z,19.3
2023-01-13T11:26:01.093Z,19.8
2023-01-13T11:27:01.125Z,19.5
2023-01-13T11:28:01.551Z,19.6
2023-01-13T11:29:01.144Z,20
2023-01-13T11:30:01.117Z,20.4
2023-01-13T11:31:00.939Z,20.4
2023-01-13T11:31:59.995Z,20.2
2023-01-13T11:33:00.023Z,20
2023-01-13T11:33:59.824Z,20.1
2023-01-13T11:35:01.485Z,20
2023-01-13T11:36:01.257Z,20
2023-01-13T11:37:01.451Z,19.4
2023-01-13T11:38:01.185Z,19
2023-01-13T11:39:01.824Z,19.1
2023-01-13T11:40:01.072Z,19
2023-01-13T11:41:00.467Z,18.7
2023-01-13T11:42:04.119Z,18.5
2023-01-13T11:43:01.209Z,18.5
2023-01-13T11:44:01.135Z,18.4
2023-01-13T11:45:01.371Z,18.2
2023-01-13T11:46:01.002Z,18.2
2023-01-13T11:47:07.037Z,18.4
2023-01-13T11:48:01.078Z,18.2
2023-01-13T11:49:01.096Z,18.2
2023-01-13T11:50:01.681Z,17.6
2023-01-13T11:51:00.735Z,17.3
2023-01-13T11:52:10.150Z,17.2
2023-01-13T11:53:01.489Z,17.4
2023-01-13T11:54:01.829Z,16.9
2023-01-13T11:55:02.526Z,16.4
2023-01-13T11:56:01.496Z,16.4
2023-01-13T11:57:14.082Z,16
2023-01-13T11:58:01.109Z,15.8
2023-01-13T11:59:01.371Z,16.3
2023-01-13T12:00:01.131Z,15.6
2023-01-13T12:01:00.943Z,14.9
2023-01-13T12:02:00.040Z,15
2023-01-13T12:02:59.890Z,14.9
2023-01-13T12:03:59.596Z,14.8
2023-01-13T12:05:01.188Z,14.9
2023-01-13T12:06:00.930Z,14.6
2023-01-13T12:07:01.151Z,14.6
2023-01-13T12:08:01.178Z,14.8
2023-01-13T12:09:01.328Z,15
2023-01-13T12:10:03.115Z,14.5
2023-01-13T12:11:01.060Z,14.8
2023-01-13T12:12:01.095Z,14.9
2023-01-13T12:13:00.819Z,14.7
2023-01-13T12:14:01.103Z,14.9
2023-01-13T12:15:01.127Z,14.8
2023-01-13T12:16:00.797Z,15.1
2023-01-13T12:17:01.402Z,15
2023-01-13T12:18:02.137Z,14.8
2023-01-13T12:19:04.913Z,15.1
2023-01-13T12:20:01.177Z,15.5
2023-01-13T12:21:00.561Z,15.7
2023-01-13T12:22:00.174Z,15.1
2023-01-13T12:22:59.930Z,15.2
2023-01-13T12:23:59.640Z,15.3
2023-01-13T12:25:01.268Z,15
2023-01-13T12:26:00.975Z,15.5
2023-01-13T12:27:01.082Z,15.6
2023-01-13T12:28:01.475Z,16
2023-01-13T12:29:00.955Z,16.1
2023-01-13T12:30:00.788Z,16.1
2023-01-13T12:31:00.658Z,15.7
2023-01-13T12:32:00.484Z,15.3
2023-01-13T12:33:00.199Z,15.4
2023-01-13T12:33:59.994Z,15.3
2023-01-13T12:34:59.679Z,15
2023-01-13T12:36:01.329Z,15.4
2023-01-13T12:37:02.108Z,15.2
2023-01-13T12:38:01.158Z,15.2
2023-01-13T12:39:01.169Z,15.4
2023-01-13T12:40:01.165Z,15.2
2023-01-13T12:41:00.837Z,15
2023-01-13T12:42:00.473Z,14.5
2023-01-13T12:43:00.144Z,14.4
2023-01-13T12:43:59.748Z,14.3
2023-01-13T12:45:01.777Z,14.8
2023-01-13T12:46:01.455Z,14.4
2023-01-13T12:47:01.117Z,14.2
2023-01-13T12:48:01.098Z,14.6
2023-01-13T12:49:01.167Z,14.4
2023-01-13T12:50:01.426Z,14.6
2023-01-13T12:51:01.019Z,14.9
2023-01-13T12:52:01.154Z,14.9
2023-01-13T12:53:00.740Z,14.9
2023-01-13T12:54:00.429Z,14.7
2023-01-13T12:55:00.118Z,14.7
2023-01-13T12:55:59.804Z,14.6
2023-01-13T12:57:01.384Z,14.8
2023-01-13T12:58:02.610Z,15.3
2023-01-13T12:59:02.616Z,15.2
2023-01-13T13:00:01.703Z,15.2
2023-01-13T13:01:01.716Z,15.1
2023-01-13T13:02:01.358Z,14.5
2023-01-13T13:03:01.201Z,14.5
2023-01-13T13:04:01.412Z,14.5
2023-01-13T13:05:01.084Z,14.3
2023-01-13T13:06:00.864Z,14.2
2023-01-13T13:07:00.497Z,14.4
2023-01-13T13:08:00.404Z,13.8
2023-01-13T13:09:03.155Z,13.8
2023-01-13T13:10:01.154Z,13.8
2023-01-13T13:11:00.827Z,13.4
2023-01-13T13:12:00.445Z,13.9
2023-01-13T13:13:00.973Z,13.4
2023-01-13T13:14:01.068Z,13
2023-01-13T13:15:03.261Z,12.7
2023-01-13T13:16:01.227Z,12.9
2023-01-13T13:17:01.661Z,12.8
2023-01-13T13:18:04.448Z,12.2
2023-01-13T13:19:01.816Z,11.5
2023-01-13T13:20:02.640Z,11.1
2023-01-13T13:21:03.968Z,10.8
2023-01-13T13:22:01.097Z,10.5
2023-01-13T13:23:08.444Z,10.4